sensor_id;sensor_type;location;lat;lon;timestamp;P1;durP1;ratioP1;P2;durP2;ratioP2
53674;SDS011;39574;50.534;8.500;2022-07-19T00:01:40;4.5;;;2.0;;
53674;SDS011;39574;50.534;8.500;2022-07-19T00:06:39;4.7;;;2.0;;
53674;SDS011;39574;50.534;8.500;2022-07-19T00:11:39;4.7;;;2.0;;
53674;SDS011;39574;50.534;8.500;2022-07-19T00:16:38;4.7;;;2.0;;
53674;SDS011;39574;50.534;8.500;2022-07-19T00:21:37;4.8;;;2.0;;
53674;SDS011;39574;50.534;8.500;2022-07-19T00:26:37;4.3;;;2.1;;
53674;SDS011;39574;50.534;8.500;2022-07-19T00:31:36;4.3;;;2.0;;
53674;SDS011;39574;50.534;8.500;2022-07-19T00:36:35;4.7;;;2.1;;
53674;SDS011;39574;50.534;8.500;2022-07-19T00:41:38;4.8;;;2.3;;
53674;SDS011;39574;50.534;8.500;2022-07-19T00:46:34;5.3;;;2.3;;
53674;SDS011;39574;50.534;8.500;2022-07-19T00:51:35;4.7;;;2.1;;
53674;SDS011;39574;50.534;8.500;2022-07-19T00:56:33;4.9;;;2.1;;
53674;SDS011;39574;50.534;8.500;2022-07-19T01:01:32;4.5;;;2.1;;
53674;SDS011;39574;50.534;8.500;2022-07-19T01:06:32;4.0;;;2.0;;
53674;SDS011;39574;50.534;8.500;2022-07-19T01:11:31;5.7;;;2.2;;
53674;SDS011;39574;50.534;8.500;2022-07-19T01:16:31;5.3;;;2.2;;
53674;SDS011;39574;50.534;8.500;2022-07-19T01:21:30;5.9;;;2.2;;
53674;SDS011;39574;50.534;8.500;2022-07-19T01:26:29;5.1;;;2.1;;
53674;SDS011;39574;50.534;8.500;2022-07-19T01:31:29;4.7;;;2.0;;
53674;SDS011;39574;50.534;8.500;2022-07-19T01:36:28;4.3;;;2.0;;
53674;SDS011;39574;50.534;8.500;2022-07-19T01:41:27;4.7;;;2.0;;
53674;SDS011;39574;50.534;8.500;2022-07-19T01:46:27;4.5;;;2.1;;
53674;SDS011;39574;50.534;8.500;2022-07-19T01:51:26;4.3;;;2.0;;
53674;SDS011;39574;50.534;8.500;2022-07-19T01:56:25;4.2;;;2.0;;
53674;SDS011;39574;50.534;8.500;2022-07-19T02:01:25;4.2;;;2.0;;
53674;SDS011;39574;50.534;8.500;2022-07-19T02:06:24;4.4;;;2.1;;
53674;SDS011;39574;50.534;8.500;2022-07-19T02:11:23;4.5;;;2.1;;
53674;SDS011;39574;50.534;8.500;2022-07-19T02:16:23;4.1;;;2.2;;
53674;SDS011;39574;50.534;8.500;2022-07-19T02:21:22;3.7;;;2.2;;
53674;SDS011;39574;50.534;8.500;2022-07-19T02:26:21;3.7;;;2.1;;
53674;SDS011;39574;50.534;8.500;2022-07-19T02:31:21;3.8;;;2.1;;
53674;SDS011;39574;50.534;8.500;2022-07-19T02:36:20;4.5;;;2.2;;
53674;SDS011;39574;50.534;8.500;2022-07-19T02:41:19;5.0;;;2.2;;
53674;SDS011;39574;50.534;8.500;2022-07-19T02:46:18;4.5;;;2.2;;
53674;SDS011;39574;50.534;8.500;2022-07-19T02:51:18;4.1;;;2.1;;
53674;SDS011;39574;50.534;8.500;2022-07-19T02:56:17;3.6;;;2.1;;
53674;SDS011;39574;50.534;8.500;2022-07-19T03:01:17;3.7;;;2.0;;
53674;SDS011;39574;50.534;8.500;2022-07-19T03:06:16;4.3;;;2.2;;
53674;SDS011;39574;50.534;8.500;2022-07-19T03:11:15;4.3;;;2.3;;
53674;SDS011;39574;50.534;8.500;2022-07-19T03:16:14;4.2;;;2.2;;
53674;SDS011;39574;50.534;8.500;2022-07-19T03:21:14;4.3;;;2.3;;
53674;SDS011;39574;50.534;8.500;2022-07-19T03:26:13;4.2;;;2.3;;
53674;SDS011;39574;50.534;8.500;2022-07-19T03:31:12;3.9;;;2.3;;
53674;SDS011;39574;50.534;8.500;2022-07-19T03:36:12;3.8;;;2.3;;
53674;SDS011;39574;50.534;8.500;2022-07-19T03:41:11;4.2;;;2.2;;
53674;SDS011;39574;50.534;8.500;2022-07-19T03:46:10;4.0;;;2.3;;
53674;SDS011;39574;50.534;8.500;2022-07-19T03:51:09;4.3;;;2.3;;
53674;SDS011;39574;50.534;8.500;2022-07-19T03:56:09;4.6;;;2.5;;
53674;SDS011;39574;50.534;8.500;2022-07-19T04:01:08;5.2;;;2.5;;
53674;SDS011;39574;50.534;8.500;2022-07-19T04:06:08;4.9;;;2.3;;
53674;SDS011;39574;50.534;8.500;2022-07-19T04:11:06;5.0;;;2.3;;
53674;SDS011;39574;50.534;8.500;2022-07-19T04:16:06;5.0;;;2.3;;
53674;SDS011;39574;50.534;8.500;2022-07-19T04:21:05;4.9;;;2.4;;
53674;SDS011;39574;50.534;8.500;2022-07-19T04:26:04;5.0;;;2.4;;
53674;SDS011;39574;50.534;8.500;2022-07-19T04:31:03;5.2;;;2.5;;
53674;SDS011;39574;50.534;8.500;2022-07-19T04:36:03;6.0;;;2.5;;
53674;SDS011;39574;50.534;8.500;2022-07-19T04:41:02;5.4;;;2.6;;
53674;SDS011;39574;50.534;8.500;2022-07-19T04:46:01;4.6;;;2.6;;
53674;SDS011;39574;50.534;8.500;2022-07-19T04:51:01;4.7;;;2.5;;
53674;SDS011;39574;50.534;8.500;2022-07-19T04:56:00;4.9;;;2.5;;
53674;SDS011;39574;50.534;8.500;2022-07-19T05:00:59;5.1;;;2.5;;
53674;SDS011;39574;50.534;8.500;2022-07-19T05:05:58;5.2;;;2.5;;
53674;SDS011;39574;50.534;8.500;2022-07-19T05:10:58;5.4;;;2.6;;
53674;SDS011;39574;50.534;8.500;2022-07-19T05:15:57;5.2;;;2.9;;
53674;SDS011;39574;50.534;8.500;2022-07-19T05:20:56;5.1;;;3.0;;
53674;SDS011;39574;50.534;8.500;2022-07-19T05:25:56;5.6;;;3.3;;
53674;SDS011;39574;50.534;8.500;2022-07-19T05:30:55;6.0;;;3.5;;
53674;SDS011;39574;50.534;8.500;2022-07-19T05:35:55;6.8;;;3.6;;
53674;SDS011;39574;50.534;8.500;2022-07-19T05:40:54;7.9;;;4.1;;
53674;SDS011;39574;50.534;8.500;2022-07-19T05:45:54;8.7;;;4.4;;
53674;SDS011;39574;50.534;8.500;2022-07-19T05:50:53;9.1;;;4.9;;
53674;SDS011;39574;50.534;8.500;2022-07-19T05:55:53;8.1;;;4.6;;
53674;SDS011;39574;50.534;8.500;2022-07-19T06:00:52;7.8;;;4.3;;
53674;SDS011;39574;50.534;8.500;2022-07-19T06:05:51;8.0;;;4.2;;
53674;SDS011;39574;50.534;8.500;2022-07-19T06:10:51;8.9;;;4.5;;
53674;SDS011;39574;50.534;8.500;2022-07-19T06:15:50;8.9;;;4.6;;
53674;SDS011;39574;50.534;8.500;2022-07-19T06:20:50;8.7;;;4.7;;
53674;SDS011;39574;50.534;8.500;2022-07-19T06:25:49;8.1;;;4.5;;
53674;SDS011;39574;50.534;8.500;2022-07-19T06:30:49;7.9;;;4.3;;
53674;SDS011;39574;50.534;8.500;2022-07-19T06:35:48;7.8;;;4.5;;
53674;SDS011;39574;50.534;8.500;2022-07-19T06:40:48;8.6;;;4.6;;
53674;SDS011;39574;50.534;8.500;2022-07-19T06:45:47;8.5;;;4.6;;
53674;SDS011;39574;50.534;8.500;2022-07-19T06:50:47;7.7;;;4.5;;
53674;SDS011;39574;50.534;8.500;2022-07-19T06:55:46;8.7;;;4.5;;
53674;SDS011;39574;50.534;8.500;2022-07-19T07:00:46;9.3;;;4.5;;
53674;SDS011;39574;50.534;8.500;2022-07-19T07:10:45;9.2;;;4.2;;
53674;SDS011;39574;50.534;8.500;2022-07-19T07:15:45;7.7;;;3.8;;
53674;SDS011;39574;50.534;8.500;2022-07-19T07:20:45;7.4;;;3.5;;
53674;SDS011;39574;50.534;8.500;2022-07-19T07:25:44;6.5;;;3.2;;
53674;SDS011;39574;50.534;8.500;2022-07-19T07:30:44;6.2;;;3.2;;
53674;SDS011;39574;50.534;8.500;2022-07-19T07:35:43;6.0;;;3.1;;
53674;SDS011;39574;50.534;8.500;2022-07-19T07:40:43;5.6;;;3.1;;
53674;SDS011;39574;50.534;8.500;2022-07-19T07:45:43;5.5;;;2.9;;
53674;SDS011;39574;50.534;8.500;2022-07-19T07:50:42;6.0;;;2.8;;
53674;SDS011;39574;50.534;8.500;2022-07-19T07:55:42;6.5;;;2.8;;
53674;SDS011;39574;50.534;8.500;2022-07-19T08:00:42;6.8;;;2.8;;
53674;SDS011;39574;50.534;8.500;2022-07-19T08:05:42;5.6;;;2.8;;
53674;SDS011;39574;50.534;8.500;2022-07-19T08:10:42;5.3;;;2.7;;
53674;SDS011;39574;50.534;8.500;2022-07-19T08:15:41;5.3;;;2.5;;
53674;SDS011;39574;50.534;8.500;2022-07-19T08:20:41;5.3;;;2.4;;
53674;SDS011;39574;50.534;8.500;2022-07-19T08:25:41;4.8;;;2.4;;
53674;SDS011;39574;50.534;8.500;2022-07-19T08:30:41;4.8;;;2.3;;
53674;SDS011;39574;50.534;8.500;2022-07-19T08:35:41;4.7;;;2.2;;
53674;SDS011;39574;50.534;8.500;2022-07-19T08:40:41;4.5;;;2.3;;
53674;SDS011;39574;50.534;8.500;2022-07-19T08:45:41;6.3;;;2.3;;
53674;SDS011;39574;50.534;8.500;2022-07-19T08:50:41;5.7;;;2.2;;
53674;SDS011;39574;50.534;8.500;2022-07-19T08:55:41;4.7;;;2.0;;
53674;SDS011;39574;50.534;8.500;2022-07-19T09:00:41;4.0;;;1.8;;
53674;SDS011;39574;50.534;8.500;2022-07-19T09:05:40;3.4;;;1.7;;
53674;SDS011;39574;50.534;8.500;2022-07-19T09:10:41;3.8;;;1.6;;
53674;SDS011;39574;50.534;8.500;2022-07-19T09:15:42;4.1;;;1.7;;
53674;SDS011;39574;50.534;8.500;2022-07-19T09:20:41;4.1;;;1.8;;
53674;SDS011;39574;50.534;8.500;2022-07-19T09:25:42;4.2;;;1.7;;
53674;SDS011;39574;50.534;8.500;2022-07-19T09:30:41;3.6;;;1.6;;
53674;SDS011;39574;50.534;8.500;2022-07-19T09:35:42;3.0;;;1.6;;
53674;SDS011;39574;50.534;8.500;2022-07-19T09:40:41;2.7;;;1.5;;
53674;SDS011;39574;50.534;8.500;2022-07-19T09:45:41;3.5;;;1.6;;
53674;SDS011;39574;50.534;8.500;2022-07-19T09:50:41;4.1;;;1.6;;
53674;SDS011;39574;50.534;8.500;2022-07-19T09:55:41;3.9;;;1.5;;
53674;SDS011;39574;50.534;8.500;2022-07-19T10:00:42;3.7;;;1.5;;
53674;SDS011;39574;50.534;8.500;2022-07-19T10:05:42;3.2;;;1.4;;
53674;SDS011;39574;50.534;8.500;2022-07-19T10:10:42;2.9;;;1.4;;
53674;SDS011;39574;50.534;8.500;2022-07-19T10:15:42;3.3;;;1.4;;
53674;SDS011;39574;50.534;8.500;2022-07-19T10:20:42;3.5;;;1.5;;
53674;SDS011;39574;50.534;8.500;2022-07-19T10:25:44;3.8;;;1.6;;
53674;SDS011;39574;50.534;8.500;2022-07-19T10:30:42;3.8;;;1.7;;
53674;SDS011;39574;50.534;8.500;2022-07-19T10:35:42;3.3;;;1.7;;
53674;SDS011;39574;50.534;8.500;2022-07-19T10:40:43;3.8;;;1.6;;
53674;SDS011;39574;50.534;8.500;2022-07-19T10:45:43;3.8;;;1.5;;
53674;SDS011;39574;50.534;8.500;2022-07-19T10:50:46;3.4;;;1.5;;
53674;SDS011;39574;50.534;8.500;2022-07-19T10:55:43;3.5;;;1.6;;
53674;SDS011;39574;50.534;8.500;2022-07-19T11:00:44;3.8;;;1.6;;
53674;SDS011;39574;50.534;8.500;2022-07-19T11:05:45;3.8;;;1.7;;
53674;SDS011;39574;50.534;8.500;2022-07-19T11:10:44;4.0;;;1.7;;
53674;SDS011;39574;50.534;8.500;2022-07-19T11:15:53;3.5;;;1.7;;
53674;SDS011;39574;50.534;8.500;2022-07-19T11:20:44;3.3;;;1.8;;
53674;SDS011;39574;50.534;8.500;2022-07-19T11:25:44;2.9;;;1.7;;
53674;SDS011;39574;50.534;8.500;2022-07-19T11:30:45;3.1;;;1.8;;
53674;SDS011;39574;50.534;8.500;2022-07-19T11:35:53;3.9;;;1.9;;
53674;SDS011;39574;50.534;8.500;2022-07-19T11:40:45;4.1;;;1.8;;
53674;SDS011;39574;50.534;8.500;2022-07-19T11:45:47;3.9;;;1.8;;
53674;SDS011;39574;50.534;8.500;2022-07-19T11:50:46;3.8;;;1.9;;
53674;SDS011;39574;50.534;8.500;2022-07-19T11:55:46;4.0;;;2.0;;
53674;SDS011;39574;50.534;8.500;2022-07-19T12:00:46;5.2;;;2.0;;
53674;SDS011;39574;50.534;8.500;2022-07-19T12:05:55;4.8;;;2.0;;
53674;SDS011;39574;50.534;8.500;2022-07-19T12:10:48;4.4;;;2.1;;
53674;SDS011;39574;50.534;8.500;2022-07-19T12:15:49;4.8;;;2.2;;
53674;SDS011;39574;50.534;8.500;2022-07-19T12:21:21;4.4;;;2.3;;
53674;SDS011;39574;50.534;8.500;2022-07-19T12:25:48;4.4;;;2.4;;
53674;SDS011;39574;50.534;8.500;2022-07-19T12:30:59;4.3;;;2.2;;
53674;SDS011;39574;50.534;8.500;2022-07-19T12:35:49;4.3;;;2.1;;
53674;SDS011;39574;50.534;8.500;2022-07-19T12:40:49;4.7;;;2.2;;
53674;SDS011;39574;50.534;8.500;2022-07-19T12:45:49;4.7;;;2.1;;
53674;SDS011;39574;50.534;8.500;2022-07-19T12:50:51;4.7;;;2.1;;
53674;SDS011;39574;50.534;8.500;2022-07-19T12:55:50;4.3;;;2.1;;
53674;SDS011;39574;50.534;8.500;2022-07-19T13:00:51;4.0;;;2.0;;
53674;SDS011;39574;50.534;8.500;2022-07-19T13:05:51;3.9;;;2.1;;
53674;SDS011;39574;50.534;8.500;2022-07-19T13:10:53;3.7;;;2.0;;
53674;SDS011;39574;50.534;8.500;2022-07-19T13:15:52;4.2;;;2.0;;
53674;SDS011;39574;50.534;8.500;2022-07-19T13:20:52;4.0;;;2.0;;
53674;SDS011;39574;50.534;8.500;2022-07-19T13:25:53;3.8;;;2.0;;
53674;SDS011;39574;50.534;8.500;2022-07-19T13:30:53;3.5;;;2.0;;
53674;SDS011;39574;50.534;8.500;2022-07-19T13:35:53;4.0;;;2.0;;
53674;SDS011;39574;50.534;8.500;2022-07-19T13:40:54;4.5;;;2.1;;
53674;SDS011;39574;50.534;8.500;2022-07-19T13:45:54;4.0;;;2.1;;
53674;SDS011;39574;50.534;8.500;2022-07-19T13:50:54;3.8;;;2.0;;
53674;SDS011;39574;50.534;8.500;2022-07-19T13:55:55;3.3;;;1.9;;
53674;SDS011;39574;50.534;8.500;2022-07-19T14:00:55;3.2;;;1.9;;
53674;SDS011;39574;50.534;8.500;2022-07-19T14:05:56;3.8;;;2.1;;
53674;SDS011;39574;50.534;8.500;2022-07-19T14:10:57;3.8;;;2.2;;
53674;SDS011;39574;50.534;8.500;2022-07-19T14:15:57;4.5;;;2.4;;
53674;SDS011;39574;50.534;8.500;2022-07-19T14:20:57;4.2;;;2.3;;
53674;SDS011;39574;50.534;8.500;2022-07-19T14:25:57;3.5;;;2.2;;
53674;SDS011;39574;50.534;8.500;2022-07-19T14:30:58;4.5;;;2.1;;
53674;SDS011;39574;50.534;8.500;2022-07-19T14:35:58;4.5;;;2.0;;
53674;SDS011;39574;50.534;8.500;2022-07-19T14:40:59;4.6;;;2.0;;
53674;SDS011;39574;50.534;8.500;2022-07-19T14:45:59;4.2;;;2.0;;
53674;SDS011;39574;50.534;8.500;2022-07-19T14:50:59;4.1;;;2.1;;
53674;SDS011;39574;50.534;8.500;2022-07-19T14:56:00;3.4;;;2.0;;
53674;SDS011;39574;50.534;8.500;2022-07-19T15:01:00;2.9;;;2.0;;
53674;SDS011;39574;50.534;8.500;2022-07-19T15:06:00;3.0;;;1.9;;
53674;SDS011;39574;50.534;8.500;2022-07-19T15:11:01;3.5;;;2.1;;
53674;SDS011;39574;50.534;8.500;2022-07-19T15:16:01;3.8;;;2.1;;
53674;SDS011;39574;50.534;8.500;2022-07-19T15:21:02;3.9;;;2.0;;
53674;SDS011;39574;50.534;8.500;2022-07-19T15:26:02;3.4;;;1.9;;
53674;SDS011;39574;50.534;8.500;2022-07-19T15:31:03;3.7;;;1.9;;
53674;SDS011;39574;50.534;8.500;2022-07-19T15:36:03;4.0;;;2.0;;
53674;SDS011;39574;50.534;8.500;2022-07-19T15:41:04;4.2;;;2.0;;
53674;SDS011;39574;50.534;8.500;2022-07-19T15:46:04;3.7;;;1.9;;
53674;SDS011;39574;50.534;8.500;2022-07-19T15:51:05;4.2;;;1.9;;
53674;SDS011;39574;50.534;8.500;2022-07-19T15:56:04;4.3;;;1.8;;
53674;SDS011;39574;50.534;8.500;2022-07-19T16:01:05;4.0;;;1.7;;
53674;SDS011;39574;50.534;8.500;2022-07-19T16:06:05;3.8;;;1.8;;
53674;SDS011;39574;50.534;8.500;2022-07-19T16:11:06;4.2;;;1.8;;
53674;SDS011;39574;50.534;8.500;2022-07-19T16:16:06;4.3;;;2.0;;
53674;SDS011;39574;50.534;8.500;2022-07-19T16:21:06;4.6;;;2.1;;
53674;SDS011;39574;50.534;8.500;2022-07-19T16:26:07;4.5;;;2.3;;
53674;SDS011;39574;50.534;8.500;2022-07-19T16:31:07;4.1;;;2.2;;
53674;SDS011;39574;50.534;8.500;2022-07-19T16:36:07;4.0;;;2.1;;
53674;SDS011;39574;50.534;8.500;2022-07-19T16:41:08;3.4;;;2.0;;
53674;SDS011;39574;50.534;8.500;2022-07-19T16:46:08;3.8;;;2.0;;
53674;SDS011;39574;50.534;8.500;2022-07-19T16:51:09;3.7;;;2.1;;
53674;SDS011;39574;50.534;8.500;2022-07-19T16:56:09;3.6;;;2.1;;
53674;SDS011;39574;50.534;8.500;2022-07-19T17:01:09;3.7;;;2.2;;
53674;SDS011;39574;50.534;8.500;2022-07-19T17:06:10;3.7;;;2.2;;
53674;SDS011;39574;50.534;8.500;2022-07-19T17:11:10;3.8;;;2.2;;
53674;SDS011;39574;50.534;8.500;2022-07-19T17:16:10;3.4;;;2.1;;
53674;SDS011;39574;50.534;8.500;2022-07-19T17:21:11;3.9;;;2.1;;
53674;SDS011;39574;50.534;8.500;2022-07-19T17:26:11;4.1;;;2.1;;
53674;SDS011;39574;50.534;8.500;2022-07-19T17:31:11;3.9;;;2.0;;
53674;SDS011;39574;50.534;8.500;2022-07-19T17:36:12;4.2;;;2.0;;
53674;SDS011;39574;50.534;8.500;2022-07-19T17:41:12;4.0;;;2.0;;
53674;SDS011;39574;50.534;8.500;2022-07-19T17:46:12;4.0;;;2.1;;
53674;SDS011;39574;50.534;8.500;2022-07-19T17:51:12;4.5;;;2.2;;
53674;SDS011;39574;50.534;8.500;2022-07-19T17:56:13;5.1;;;2.2;;
53674;SDS011;39574;50.534;8.500;2022-07-19T18:01:13;5.0;;;2.3;;
53674;SDS011;39574;50.534;8.500;2022-07-19T18:06:13;5.5;;;2.2;;
53674;SDS011;39574;50.534;8.500;2022-07-19T18:11:14;5.0;;;2.2;;
53674;SDS011;39574;50.534;8.500;2022-07-19T18:16:14;4.1;;;2.2;;
53674;SDS011;39574;50.534;8.500;2022-07-19T18:21:14;4.4;;;2.3;;
53674;SDS011;39574;50.534;8.500;2022-07-19T18:26:14;4.0;;;2.3;;
53674;SDS011;39574;50.534;8.500;2022-07-19T18:31:15;4.2;;;2.3;;
53674;SDS011;39574;50.534;8.500;2022-07-19T18:36:15;3.7;;;2.2;;
53674;SDS011;39574;50.534;8.500;2022-07-19T18:41:15;3.5;;;2.1;;
53674;SDS011;39574;50.534;8.500;2022-07-19T18:46:15;4.4;;;2.2;;
53674;SDS011;39574;50.534;8.500;2022-07-19T18:51:15;4.3;;;2.2;;
53674;SDS011;39574;50.534;8.500;2022-07-19T18:56:15;4.9;;;2.2;;
53674;SDS011;39574;50.534;8.500;2022-07-19T19:01:16;4.3;;;2.2;;
53674;SDS011;39574;50.534;8.500;2022-07-19T19:06:16;3.7;;;2.3;;
53674;SDS011;39574;50.534;8.500;2022-07-19T19:11:16;3.6;;;2.3;;
53674;SDS011;39574;50.534;8.500;2022-07-19T19:16:16;4.0;;;2.3;;
53674;SDS011;39574;50.534;8.500;2022-07-19T19:21:16;4.5;;;2.5;;
53674;SDS011;39574;50.534;8.500;2022-07-19T19:26:16;4.5;;;2.5;;
53674;SDS011;39574;50.534;8.500;2022-07-19T19:31:16;5.2;;;2.8;;
53674;SDS011;39574;50.534;8.500;2022-07-19T19:36:16;5.1;;;2.9;;
53674;SDS011;39574;50.534;8.500;2022-07-19T19:41:16;5.0;;;3.0;;
53674;SDS011;39574;50.534;8.500;2022-07-19T19:46:16;5.0;;;2.8;;
53674;SDS011;39574;50.534;8.500;2022-07-19T19:51:16;4.7;;;2.8;;
53674;SDS011;39574;50.534;8.500;2022-07-19T19:56:16;5.2;;;3.0;;
53674;SDS011;39574;50.534;8.500;2022-07-19T20:01:16;5.5;;;3.2;;
53674;SDS011;39574;50.534;8.500;2022-07-19T20:06:16;5.4;;;3.2;;
53674;SDS011;39574;50.534;8.500;2022-07-19T20:11:16;5.3;;;3.0;;
53674;SDS011;39574;50.534;8.500;2022-07-19T20:16:16;5.4;;;2.9;;
53674;SDS011;39574;50.534;8.500;2022-07-19T20:21:16;5.4;;;3.0;;
53674;SDS011;39574;50.534;8.500;2022-07-19T20:26:15;6.1;;;3.0;;
53674;SDS011;39574;50.534;8.500;2022-07-19T20:31:15;6.4;;;3.1;;
53674;SDS011;39574;50.534;8.500;2022-07-19T20:36:15;7.3;;;3.2;;
53674;SDS011;39574;50.534;8.500;2022-07-19T20:41:15;7.5;;;3.4;;
53674;SDS011;39574;50.534;8.500;2022-07-19T20:46:15;6.4;;;3.3;;
53674;SDS011;39574;50.534;8.500;2022-07-19T20:51:15;6.2;;;3.4;;
53674;SDS011;39574;50.534;8.500;2022-07-19T20:56:15;5.3;;;3.4;;
53674;SDS011;39574;50.534;8.500;2022-07-19T21:01:14;5.6;;;3.5;;
53674;SDS011;39574;50.534;8.500;2022-07-19T21:06:14;5.7;;;3.3;;
53674;SDS011;39574;50.534;8.500;2022-07-19T21:11:14;5.5;;;3.1;;
53674;SDS011;39574;50.534;8.500;2022-07-19T21:16:14;5.4;;;3.0;;
53674;SDS011;39574;50.534;8.500;2022-07-19T21:21:14;5.3;;;3.2;;
53674;SDS011;39574;50.534;8.500;2022-07-19T21:26:13;5.7;;;3.2;;
53674;SDS011;39574;50.534;8.500;2022-07-19T21:31:13;6.8;;;3.2;;
53674;SDS011;39574;50.534;8.500;2022-07-19T21:36:13;6.3;;;3.1;;
53674;SDS011;39574;50.534;8.500;2022-07-19T21:41:13;5.4;;;3.0;;
53674;SDS011;39574;50.534;8.500;2022-07-19T21:46:13;5.3;;;3.1;;
53674;SDS011;39574;50.534;8.500;2022-07-19T21:51:13;5.3;;;3.2;;
53674;SDS011;39574;50.534;8.500;2022-07-19T21:56:13;5.4;;;3.1;;
53674;SDS011;39574;50.534;8.500;2022-07-19T22:01:13;5.8;;;3.0;;
53674;SDS011;39574;50.534;8.500;2022-07-19T22:06:12;5.8;;;2.9;;
53674;SDS011;39574;50.534;8.500;2022-07-19T22:11:12;5.1;;;2.9;;
53674;SDS011;39574;50.534;8.500;2022-07-19T22:16:11;5.1;;;2.9;;
53674;SDS011;39574;50.534;8.500;2022-07-19T22:21:11;4.7;;;2.9;;
53674;SDS011;39574;50.534;8.500;2022-07-19T22:26:11;5.0;;;3.0;;
53674;SDS011;39574;50.534;8.500;2022-07-19T22:31:11;5.0;;;3.0;;
53674;SDS011;39574;50.534;8.500;2022-07-19T22:36:10;5.2;;;3.1;;
53674;SDS011;39574;50.534;8.500;2022-07-19T22:41:10;4.9;;;3.1;;
53674;SDS011;39574;50.534;8.500;2022-07-19T22:46:10;4.7;;;3.1;;
53674;SDS011;39574;50.534;8.500;2022-07-19T22:51:10;4.8;;;3.0;;
53674;SDS011;39574;50.534;8.500;2022-07-19T22:56:09;5.2;;;3.0;;
53674;SDS011;39574;50.534;8.500;2022-07-19T23:01:09;5.2;;;3.1;;
53674;SDS011;39574;50.534;8.500;2022-07-19T23:06:09;5.8;;;3.2;;
53674;SDS011;39574;50.534;8.500;2022-07-19T23:11:08;5.2;;;3.2;;
53674;SDS011;39574;50.534;8.500;2022-07-19T23:16:08;5.2;;;3.2;;
53674;SDS011;39574;50.534;8.500;2022-07-19T23:21:08;5.3;;;3.2;;
53674;SDS011;39574;50.534;8.500;2022-07-19T23:26:07;5.8;;;3.3;;
53674;SDS011;39574;50.534;8.500;2022-07-19T23:31:07;7.6;;;3.4;;
53674;SDS011;39574;50.534;8.500;2022-07-19T23:36:07;7.4;;;3.4;;
53674;SDS011;39574;50.534;8.500;2022-07-19T23:41:06;6.5;;;3.3;;
53674;SDS011;39574;50.534;8.500;2022-07-19T23:46:06;6.5;;;3.3;;
53674;SDS011;39574;50.534;8.500;2022-07-19T23:51:06;5.6;;;3.1;;
53674;SDS011;39574;50.534;8.500;2022-07-19T23:56:05;5.4;;;3.2;;
